sensor_id;sensor_type;location;lat;lon;timestamp;pressure;altitude;pressure_sealevel;temperature;humidity
66385;BME280;53426;55.872;37.462;2023-04-22T00:00:32;98779.94;;;8.82;45.58
66385;BME280;53426;55.872;37.462;2023-04-22T00:02:58;98761.00;;;8.68;45.45
66385;BME280;53426;55.872;37.462;2023-04-22T00:05:26;98780.59;;;8.75;45.88
66385;BME280;53426;55.872;37.462;2023-04-22T00:07:51;98779.47;;;8.68;45.99
66385;BME280;53426;55.872;37.462;2023-04-22T00:10:17;98781.25;;;8.67;45.82
66385;BME280;53426;55.872;37.462;2023-04-22T00:12:43;98788.06;;;8.60;46.27
66385;BME280;53426;55.872;37.462;2023-04-22T00:15:09;98781.53;;;8.55;46.54
66385;BME280;53426;55.872;37.462;2023-04-22T00:17:36;98779.84;;;8.44;46.70
66385;BME280;53426;55.872;37.462;2023-04-22T00:20:02;98783.69;;;8.40;46.41
66385;BME280;53426;55.872;37.462;2023-04-22T00:22:30;98790.91;;;8.38;46.66
66385;BME280;53426;55.872;37.462;2023-04-22T00:24:55;98787.97;;;8.31;47.14
66385;BME280;53426;55.872;37.462;2023-04-22T00:27:21;98792.16;;;8.34;46.75
66385;BME280;53426;55.872;37.462;2023-04-22T00:29:47;98790.00;;;8.28;47.43
66385;BME280;53426;55.872;37.462;2023-04-22T00:32:13;98774.00;;;8.20;47.49
66385;BME280;53426;55.872;37.462;2023-04-22T00:34:39;98766.06;;;8.10;47.86
66385;BME280;53426;55.872;37.462;2023-04-22T00:37:05;98780.63;;;8.14;47.43
66385;BME280;53426;55.872;37.462;2023-04-22T00:39:31;98788.00;;;8.11;48.29
66385;BME280;53426;55.872;37.462;2023-04-22T00:41:57;98791.25;;;8.03;48.30
66385;BME280;53426;55.872;37.462;2023-04-22T00:44:23;98783.50;;;8.02;48.55
66385;BME280;53426;55.872;37.462;2023-04-22T00:46:50;98766.50;;;7.85;48.70
66385;BME280;53426;55.872;37.462;2023-04-22T00:49:17;98777.72;;;7.87;49.21
66385;BME280;53426;55.872;37.462;2023-04-22T00:51:45;98790.06;;;7.86;49.09
66385;BME280;53426;55.872;37.462;2023-04-22T00:54:10;98784.94;;;7.85;49.01
66385;BME280;53426;55.872;37.462;2023-04-22T00:56:37;98766.94;;;7.69;49.34
66385;BME280;53426;55.872;37.462;2023-04-22T00:59:04;98790.00;;;7.77;49.90
66385;BME280;53426;55.872;37.462;2023-04-22T01:01:29;98764.13;;;7.61;49.38
66385;BME280;53426;55.872;37.462;2023-04-22T01:03:57;98747.09;;;7.44;50.11
66385;BME280;53426;55.872;37.462;2023-04-22T01:06:24;98744.53;;;7.33;50.21
66385;BME280;53426;55.872;37.462;2023-04-22T01:08:52;98764.13;;;7.40;50.18
66385;BME280;53426;55.872;37.462;2023-04-22T01:11:18;98783.78;;;7.57;50.34
66385;BME280;53426;55.872;37.462;2023-04-22T01:13:45;98787.63;;;7.53;50.65
66385;BME280;53426;55.872;37.462;2023-04-22T01:16:12;98785.38;;;7.48;50.72
66385;BME280;53426;55.872;37.462;2023-04-22T01:18:37;98770.22;;;7.41;50.67
66385;BME280;53426;55.872;37.462;2023-04-22T01:21:04;98789.34;;;7.43;50.80
66385;BME280;53426;55.872;37.462;2023-04-22T01:23:32;98779.22;;;7.38;50.89
66385;BME280;53426;55.872;37.462;2023-04-22T01:25:58;98764.63;;;7.34;51.19
66385;BME280;53426;55.872;37.462;2023-04-22T01:28:24;98752.88;;;7.18;51.33
66385;BME280;53426;55.872;37.462;2023-04-22T01:30:51;98760.75;;;7.18;51.13
66385;BME280;53426;55.872;37.462;2023-04-22T01:33:17;98769.13;;;7.23;51.35
66385;BME280;53426;55.872;37.462;2023-04-22T01:35:43;98772.97;;;7.19;51.21
66385;BME280;53426;55.872;37.462;2023-04-22T01:38:10;98777.13;;;7.21;51.42
66385;BME280;53426;55.872;37.462;2023-04-22T01:40:37;98777.50;;;7.17;51.55
66385;BME280;53426;55.872;37.462;2023-04-22T01:43:04;98763.56;;;7.05;52.13
66385;BME280;53426;55.872;37.462;2023-04-22T01:45:32;98775.53;;;7.09;52.06
66385;BME280;53426;55.872;37.462;2023-04-22T01:47:58;98777.06;;;7.11;51.63
66385;BME280;53426;55.872;37.462;2023-04-22T01:50:24;98780.63;;;7.10;52.69
66385;BME280;53426;55.872;37.462;2023-04-22T01:52:50;98779.13;;;7.08;52.46
66385;BME280;53426;55.872;37.462;2023-04-22T01:55:16;98780.06;;;7.07;52.23
66385;BME280;53426;55.872;37.462;2023-04-22T01:57:42;98776.38;;;6.98;52.91
66385;BME280;53426;55.872;37.462;2023-04-22T02:00:09;98789.31;;;7.01;52.51
66385;BME280;53426;55.872;37.462;2023-04-22T02:02:39;98774.28;;;6.92;53.13
66385;BME280;53426;55.872;37.462;2023-04-22T02:05:06;98787.16;;;6.95;52.78
66385;BME280;53426;55.872;37.462;2023-04-22T02:07:32;98781.44;;;6.90;52.53
66385;BME280;53426;55.872;37.462;2023-04-22T02:09:58;98774.63;;;6.88;52.84
66385;BME280;53426;55.872;37.462;2023-04-22T02:12:26;98783.72;;;6.84;53.28
66385;BME280;53426;55.872;37.462;2023-04-22T02:14:52;98777.63;;;6.83;52.78
66385;BME280;53426;55.872;37.462;2023-04-22T02:17:34;98782.66;;;6.86;52.81
66385;BME280;53426;55.872;37.462;2023-04-22T02:20:01;98788.03;;;6.85;53.05
66385;BME280;53426;55.872;37.462;2023-04-22T02:22:31;98774.88;;;6.85;53.43
66385;BME280;53426;55.872;37.462;2023-04-22T02:24:57;98777.41;;;6.86;52.77
66385;BME280;53426;55.872;37.462;2023-04-22T02:27:24;98773.91;;;6.86;53.18
66385;BME280;53426;55.872;37.462;2023-04-22T02:29:51;98772.25;;;6.85;52.80
66385;BME280;53426;55.872;37.462;2023-04-22T02:32:16;98768.28;;;6.90;53.13
66385;BME280;53426;55.872;37.462;2023-04-22T02:34:42;98773.53;;;6.90;52.98
66385;BME280;53426;55.872;37.462;2023-04-22T02:37:08;98765.53;;;6.92;52.92
66385;BME280;53426;55.872;37.462;2023-04-22T02:39:34;98773.06;;;6.96;52.63
66385;BME280;53426;55.872;37.462;2023-04-22T02:42:00;98786.41;;;7.04;53.01
66385;BME280;53426;55.872;37.462;2023-04-22T02:44:27;98780.91;;;7.07;52.47
66385;BME280;53426;55.872;37.462;2023-04-22T02:46:53;98783.16;;;7.12;52.49
66385;BME280;53426;55.872;37.462;2023-04-22T02:49:19;98759.25;;;7.04;52.77
66385;BME280;53426;55.872;37.462;2023-04-22T02:51:45;98755.53;;;7.06;51.98
66385;BME280;53426;55.872;37.462;2023-04-22T02:54:11;98766.75;;;7.20;52.24
66385;BME280;53426;55.872;37.462;2023-04-22T02:56:36;98770.06;;;7.22;52.67
66385;BME280;53426;55.872;37.462;2023-04-22T02:59:02;98791.59;;;7.27;52.52
66385;BME280;53426;55.872;37.462;2023-04-22T03:01:28;98788.56;;;7.31;52.15
66385;BME280;53426;55.872;37.462;2023-04-22T03:03:58;98778.56;;;7.25;52.79
66385;BME280;53426;55.872;37.462;2023-04-22T03:06:24;98774.09;;;7.26;52.82
66385;BME280;53426;55.872;37.462;2023-04-22T03:08:50;98778.88;;;7.32;52.09
66385;BME280;53426;55.872;37.462;2023-04-22T03:11:16;98794.63;;;7.43;52.22
66385;BME280;53426;55.872;37.462;2023-04-22T03:13:42;98797.03;;;7.46;52.18
66385;BME280;53426;55.872;37.462;2023-04-22T03:16:08;98777.16;;;7.42;52.09
66385;BME280;53426;55.872;37.462;2023-04-22T03:18:33;98777.41;;;7.39;51.91
66385;BME280;53426;55.872;37.462;2023-04-22T03:21:00;98769.97;;;7.44;51.90
66385;BME280;53426;55.872;37.462;2023-04-22T03:23:26;98783.78;;;7.57;52.07
66385;BME280;53426;55.872;37.462;2023-04-22T03:25:51;98786.16;;;7.60;51.99
66385;BME280;53426;55.872;37.462;2023-04-22T03:28:18;98786.22;;;7.70;51.49
66385;BME280;53426;55.872;37.462;2023-04-22T03:30:44;98772.47;;;7.66;51.49
66385;BME280;53426;55.872;37.462;2023-04-22T03:33:10;98791.41;;;7.81;50.86
66385;BME280;53426;55.872;37.462;2023-04-22T03:35:51;98767.41;;;7.74;50.84
66385;BME280;53426;55.872;37.462;2023-04-22T03:38:19;98782.59;;;7.91;50.47
66385;BME280;53426;55.872;37.462;2023-04-22T03:40:46;98801.69;;;8.05;50.62
66385;BME280;53426;55.872;37.462;2023-04-22T03:43:23;98804.66;;;8.11;50.40
66385;BME280;53426;55.872;37.462;2023-04-22T03:46:03;98805.41;;;8.23;49.93
66385;BME280;53426;55.872;37.462;2023-04-22T03:48:31;98806.22;;;8.94;48.91
66385;BME280;53426;55.872;37.462;2023-04-22T03:51:01;98807.41;;;10.05;46.46
66385;BME280;53426;55.872;37.462;2023-04-22T03:53:31;98812.50;;;11.17;43.62
66385;BME280;53426;55.872;37.462;2023-04-22T03:55:57;98806.81;;;11.83;42.37
66385;BME280;53426;55.872;37.462;2023-04-22T03:58:23;98807.72;;;12.51;40.84
66385;BME280;53426;55.872;37.462;2023-04-22T04:00:50;98794.44;;;13.10;39.68
66385;BME280;53426;55.872;37.462;2023-04-22T04:03:18;98799.88;;;13.82;37.67
66385;BME280;53426;55.872;37.462;2023-04-22T04:05:47;98791.81;;;14.31;36.92
66385;BME280;53426;55.872;37.462;2023-04-22T04:08:13;98792.03;;;14.77;36.29
66385;BME280;53426;55.872;37.462;2023-04-22T04:10:41;98807.28;;;15.44;35.01
66385;BME280;53426;55.872;37.462;2023-04-22T04:13:07;98801.59;;;15.93;34.47
66385;BME280;53426;55.872;37.462;2023-04-22T04:15:43;98807.03;;;16.52;33.52
66385;BME280;53426;55.872;37.462;2023-04-22T04:18:10;98811.31;;;16.97;32.47
66385;BME280;53426;55.872;37.462;2023-04-22T04:20:36;98809.69;;;17.32;31.07
66385;BME280;53426;55.872;37.462;2023-04-22T04:23:02;98808.28;;;17.57;31.20
66385;BME280;53426;55.872;37.462;2023-04-22T04:25:29;98791.94;;;17.45;30.93
66385;BME280;53426;55.872;37.462;2023-04-22T04:28:06;98809.22;;;17.85;30.23
66385;BME280;53426;55.872;37.462;2023-04-22T04:30:36;98810.53;;;17.96;30.18
66385;BME280;53426;55.872;37.462;2023-04-22T04:33:03;98798.16;;;17.52;30.56
66385;BME280;53426;55.872;37.462;2023-04-22T04:35:34;98805.66;;;18.06;29.92
66385;BME280;53426;55.872;37.462;2023-04-22T04:38:01;98801.56;;;18.66;28.96
66385;BME280;53426;55.872;37.462;2023-04-22T04:40:30;98812.72;;;18.69;29.13
66385;BME280;53426;55.872;37.462;2023-04-22T04:43:06;98807.41;;;18.83;28.50
66385;BME280;53426;55.872;37.462;2023-04-22T04:45:41;98803.28;;;19.34;28.09
66385;BME280;53426;55.872;37.462;2023-04-22T04:48:13;98799.16;;;19.25;27.81
66385;BME280;53426;55.872;37.462;2023-04-22T04:50:46;98793.41;;;19.48;27.29
66385;BME280;53426;55.872;37.462;2023-04-22T04:53:11;98810.00;;;19.78;27.52
66385;BME280;53426;55.872;37.462;2023-04-22T04:55:40;98793.00;;;20.63;26.36
66385;BME280;53426;55.872;37.462;2023-04-22T04:58:14;98805.69;;;21.00;26.11
66385;BME280;53426;55.872;37.462;2023-04-22T05:00:40;98808.41;;;21.45;25.04
66385;BME280;53426;55.872;37.462;2023-04-22T05:03:07;98809.78;;;22.17;24.75
66385;BME280;53426;55.872;37.462;2023-04-22T05:05:34;98807.22;;;22.71;23.63
66385;BME280;53426;55.872;37.462;2023-04-22T05:08:01;98794.84;;;23.30;22.86
66385;BME280;53426;55.872;37.462;2023-04-22T05:10:27;98805.13;;;23.69;22.46
66385;BME280;53426;55.872;37.462;2023-04-22T05:12:56;98812.31;;;23.75;22.08
66385;BME280;53426;55.872;37.462;2023-04-22T05:15:27;98818.78;;;23.74;22.13
66385;BME280;53426;55.872;37.462;2023-04-22T05:17:57;98804.00;;;24.00;22.34
66385;BME280;53426;55.872;37.462;2023-04-22T05:20:27;98792.66;;;24.33;21.52
66385;BME280;53426;55.872;37.462;2023-04-22T05:22:58;98773.59;;;24.28;21.23
66385;BME280;53426;55.872;37.462;2023-04-22T05:25:23;98810.06;;;24.60;20.86
66385;BME280;53426;55.872;37.462;2023-04-22T05:30:58;98821.66;;;25.76;19.86
66385;BME280;53426;55.872;37.462;2023-04-22T05:33:27;98777.56;;;25.64;19.70
66385;BME280;53426;55.872;37.462;2023-04-22T05:35:53;98777.06;;;26.00;19.42
66385;BME280;53426;55.872;37.462;2023-04-22T05:38:19;98753.06;;;26.09;19.14
66385;BME280;53426;55.872;37.462;2023-04-22T05:40:45;98785.41;;;26.65;19.00
66385;BME280;53426;55.872;37.462;2023-04-22T05:43:16;98790.06;;;27.09;18.62
66385;BME280;53426;55.872;37.462;2023-04-22T05:45:47;98807.91;;;27.21;18.12
66385;BME280;53426;55.872;37.462;2023-04-22T05:48:15;98814.59;;;27.14;18.10
66385;BME280;53426;55.872;37.462;2023-04-22T05:50:50;98784.19;;;26.95;17.92
66385;BME280;53426;55.872;37.462;2023-04-22T05:53:17;98811.78;;;27.52;18.00
66385;BME280;53426;55.872;37.462;2023-04-22T05:55:43;98800.56;;;28.02;17.48
66385;BME280;53426;55.872;37.462;2023-04-22T05:58:09;98807.09;;;27.69;17.43
66385;BME280;53426;55.872;37.462;2023-04-22T06:00:52;98815.22;;;28.28;16.92
66385;BME280;53426;55.872;37.462;2023-04-22T06:03:37;98818.03;;;28.38;17.24
66385;BME280;53426;55.872;37.462;2023-04-22T06:06:03;98808.41;;;27.99;17.13
66385;BME280;53426;55.872;37.462;2023-04-22T06:08:30;98821.84;;;27.52;17.52
66385;BME280;53426;55.872;37.462;2023-04-22T06:10:56;98820.50;;;28.08;17.01
66385;BME280;53426;55.872;37.462;2023-04-22T06:13:25;98816.50;;;27.62;17.45
66385;BME280;53426;55.872;37.462;2023-04-22T06:15:52;98814.13;;;27.65;17.37
66385;BME280;53426;55.872;37.462;2023-04-22T06:18:19;98824.78;;;28.31;16.55
66385;BME280;53426;55.872;37.462;2023-04-22T06:20:45;98795.06;;;28.66;16.53
66385;BME280;53426;55.872;37.462;2023-04-22T06:23:12;98791.69;;;28.91;16.25
66385;BME280;53426;55.872;37.462;2023-04-22T06:25:44;98817.59;;;29.66;15.79
66385;BME280;53426;55.872;37.462;2023-04-22T06:28:20;98816.78;;;29.65;15.78
66385;BME280;53426;55.872;37.462;2023-04-22T06:30:48;98740.50;;;29.13;16.08
66385;BME280;53426;55.872;37.462;2023-04-22T06:33:18;98754.69;;;29.15;16.10
66385;BME280;53426;55.872;37.462;2023-04-22T06:36:00;98806.69;;;29.66;16.28
66385;BME280;53426;55.872;37.462;2023-04-22T06:38:53;98807.56;;;30.22;16.97
66385;BME280;53426;55.872;37.462;2023-04-22T06:42:10;98799.91;;;30.54;15.90
66385;BME280;53426;55.872;37.462;2023-04-22T06:49:12;98773.53;;;26.88;17.78
66385;BME280;53426;55.872;37.462;2023-04-22T06:52:12;98744.66;;;27.31;16.90
66385;BME280;53426;55.872;37.462;2023-04-22T06:54:38;98778.44;;;27.62;16.78
66385;BME280;53426;55.872;37.462;2023-04-22T06:57:04;98798.94;;;28.33;16.58
66385;BME280;53426;55.872;37.462;2023-04-22T06:59:33;98766.59;;;26.59;17.59
66385;BME280;53426;55.872;37.462;2023-04-22T07:02:26;98794.69;;;25.13;19.20
66385;BME280;53426;55.872;37.462;2023-04-22T07:11:14;98785.97;;;24.59;19.08
66385;BME280;53426;55.872;37.462;2023-04-22T07:13:53;98781.53;;;22.44;21.22
66385;BME280;53426;55.872;37.462;2023-04-22T07:16:29;98773.81;;;21.73;22.32
66385;BME280;53426;55.872;37.462;2023-04-22T07:19:00;98763.28;;;20.96;22.98
66385;BME280;53426;55.872;37.462;2023-04-22T07:21:27;98783.69;;;20.72;23.80
66385;BME280;53426;55.872;37.462;2023-04-22T07:23:53;98804.41;;;20.25;24.90
66385;BME280;53426;55.872;37.462;2023-04-22T07:26:18;98796.69;;;19.43;25.37
66385;BME280;53426;55.872;37.462;2023-04-22T07:28:45;98808.13;;;19.04;25.66
66385;BME280;53426;55.872;37.462;2023-04-22T07:31:11;98783.69;;;18.45;26.95
66385;BME280;53426;55.872;37.462;2023-04-22T07:33:37;98802.66;;;18.50;26.50
66385;BME280;53426;55.872;37.462;2023-04-22T07:36:03;98800.53;;;20.01;24.60
66385;BME280;53426;55.872;37.462;2023-04-22T07:38:29;98792.63;;;19.47;24.88
66385;BME280;53426;55.872;37.462;2023-04-22T07:40:58;98770.59;;;19.11;25.40
66385;BME280;53426;55.872;37.462;2023-04-22T07:43:24;98811.03;;;21.20;23.30
66385;BME280;53426;55.872;37.462;2023-04-22T07:45:50;98763.06;;;23.14;21.23
66385;BME280;53426;55.872;37.462;2023-04-22T07:48:16;98786.19;;;24.57;19.50
66385;BME280;53426;55.872;37.462;2023-04-22T07:50:42;98809.00;;;23.73;20.13
66385;BME280;53426;55.872;37.462;2023-04-22T07:53:08;98789.31;;;22.34;21.37
66385;BME280;53426;55.872;37.462;2023-04-22T07:55:35;98795.75;;;21.77;22.18
66385;BME280;53426;55.872;37.462;2023-04-22T07:58:01;98813.53;;;21.08;23.13
66385;BME280;53426;55.872;37.462;2023-04-22T08:00:34;98798.63;;;20.41;23.80
66385;BME280;53426;55.872;37.462;2023-04-22T08:03:01;98777.56;;;19.86;24.28
66385;BME280;53426;55.872;37.462;2023-04-22T08:05:27;98780.56;;;20.75;23.44
66385;BME280;53426;55.872;37.462;2023-04-22T08:07:53;98799.41;;;21.64;23.00
66385;BME280;53426;55.872;37.462;2023-04-22T08:10:19;98801.06;;;21.27;22.87
66385;BME280;53426;55.872;37.462;2023-04-22T08:12:45;98795.47;;;20.64;23.62
66385;BME280;53426;55.872;37.462;2023-04-22T08:15:11;98801.25;;;20.68;23.72
66385;BME280;53426;55.872;37.462;2023-04-22T08:17:37;98814.31;;;20.64;23.81
66385;BME280;53426;55.872;37.462;2023-04-22T08:20:04;98770.69;;;20.56;23.70
66385;BME280;53426;55.872;37.462;2023-04-22T08:22:30;98794.22;;;21.62;22.70
66385;BME280;53426;55.872;37.462;2023-04-22T08:24:56;98787.28;;;23.20;21.57
66385;BME280;53426;55.872;37.462;2023-04-22T08:27:22;98784.38;;;23.82;20.42
66385;BME280;53426;55.872;37.462;2023-04-22T08:29:48;98803.97;;;22.99;21.09
66385;BME280;53426;55.872;37.462;2023-04-22T08:32:14;98794.63;;;21.91;22.32
66385;BME280;53426;55.872;37.462;2023-04-22T08:34:40;98774.75;;;20.78;23.43
66385;BME280;53426;55.872;37.462;2023-04-22T08:37:06;98803.63;;;20.18;24.18
66385;BME280;53426;55.872;37.462;2023-04-22T08:39:33;98795.91;;;19.49;25.16
66385;BME280;53426;55.872;37.462;2023-04-22T08:41:58;98805.53;;;19.24;24.65
66385;BME280;53426;55.872;37.462;2023-04-22T08:44:24;98790.16;;;18.92;24.55
66385;BME280;53426;55.872;37.462;2023-04-22T08:46:51;98796.06;;;18.80;25.66
66385;BME280;53426;55.872;37.462;2023-04-22T08:49:18;98801.31;;;18.54;25.93
66385;BME280;53426;55.872;37.462;2023-04-22T08:51:44;98794.41;;;18.45;25.88
66385;BME280;53426;55.872;37.462;2023-04-22T08:54:11;98790.09;;;18.51;25.59
66385;BME280;53426;55.872;37.462;2023-04-22T08:56:42;98798.03;;;18.59;25.58
66385;BME280;53426;55.872;37.462;2023-04-22T08:59:12;98809.56;;;20.60;23.27
66385;BME280;53426;55.872;37.462;2023-04-22T09:01:41;98789.06;;;22.78;20.99
66385;BME280;53426;55.872;37.462;2023-04-22T09:04:09;98800.84;;;24.03;19.75
66385;BME280;53426;55.872;37.462;2023-04-22T09:06:37;98774.09;;;23.42;19.95
66385;BME280;53426;55.872;37.462;2023-04-22T09:09:06;98791.56;;;23.58;19.86
66385;BME280;53426;55.872;37.462;2023-04-22T09:11:34;98785.44;;;23.03;20.16
66385;BME280;53426;55.872;37.462;2023-04-22T09:14:02;98769.97;;;22.37;20.83
66385;BME280;53426;55.872;37.462;2023-04-22T09:16:32;98782.97;;;21.41;21.80
66385;BME280;53426;55.872;37.462;2023-04-22T09:18:58;98767.75;;;21.21;21.91
66385;BME280;53426;55.872;37.462;2023-04-22T09:21:25;98783.84;;;22.59;20.77
66385;BME280;53426;55.872;37.462;2023-04-22T09:23:55;98756.28;;;23.83;19.43
66385;BME280;53426;55.872;37.462;2023-04-22T09:26:24;98772.06;;;25.47;18.01
66385;BME280;53426;55.872;37.462;2023-04-22T09:28:54;98782.06;;;26.42;17.14
66385;BME280;53426;55.872;37.462;2023-04-22T09:31:23;98769.91;;;27.04;16.53
66385;BME280;53426;55.872;37.462;2023-04-22T09:33:52;98768.22;;;28.06;15.53
66385;BME280;53426;55.872;37.462;2023-04-22T09:36:25;98783.72;;;28.79;15.16
66385;BME280;53426;55.872;37.462;2023-04-22T09:39:03;98777.34;;;28.21;15.78
66385;BME280;53426;55.872;37.462;2023-04-22T09:41:31;98771.19;;;26.80;16.62
66385;BME280;53426;55.872;37.462;2023-04-22T09:44:03;98775.94;;;24.13;18.47
66385;BME280;53426;55.872;37.462;2023-04-22T09:46:33;98782.84;;;23.26;19.25
66385;BME280;53426;55.872;37.462;2023-04-22T09:49:00;98781.97;;;22.41;20.47
66385;BME280;53426;55.872;37.462;2023-04-22T09:51:27;98783.81;;;21.66;21.59
66385;BME280;53426;55.872;37.462;2023-04-22T09:54:01;98782.97;;;20.89;22.39
66385;BME280;53426;55.872;37.462;2023-04-22T09:59:16;98787.06;;;19.82;23.71
66385;BME280;53426;55.872;37.462;2023-04-22T10:01:44;98790.78;;;19.74;23.48
66385;BME280;53426;55.872;37.462;2023-04-22T10:04:15;98768.28;;;20.92;22.47
66385;BME280;53426;55.872;37.462;2023-04-22T10:06:42;98779.00;;;23.04;20.18
66385;BME280;53426;55.872;37.462;2023-04-22T10:09:09;98738.28;;;25.10;19.29
66385;BME280;53426;55.872;37.462;2023-04-22T10:11:36;98742.72;;;25.89;17.20
66385;BME280;53426;55.872;37.462;2023-04-22T10:14:30;98783.13;;;27.44;16.45
66385;BME280;53426;55.872;37.462;2023-04-22T10:17:16;98759.34;;;27.88;15.36
66385;BME280;53426;55.872;37.462;2023-04-22T10:19:46;98709.13;;;28.01;15.35
66385;BME280;53426;55.872;37.462;2023-04-22T10:22:12;98749.50;;;28.51;14.47
66385;BME280;53426;55.872;37.462;2023-04-22T10:24:39;98714.38;;;28.60;14.35
66385;BME280;53426;55.872;37.462;2023-04-22T10:27:13;98770.00;;;29.26;14.36
66385;BME280;53426;55.872;37.462;2023-04-22T10:36:24;98742.00;;;29.51;13.80
66385;BME280;53426;55.872;37.462;2023-04-22T10:44:27;98768.94;;;25.83;15.66
66385;BME280;53426;55.872;37.462;2023-04-22T10:46:56;98765.34;;;23.17;18.47
66385;BME280;53426;55.872;37.462;2023-04-22T10:53:45;98751.13;;;24.28;17.96
66385;BME280;53426;55.872;37.462;2023-04-22T10:56:17;98663.06;;;25.00;17.07
66385;BME280;53426;55.872;37.462;2023-04-22T10:58:43;98757.69;;;25.18;17.38
66385;BME280;53426;55.872;37.462;2023-04-22T11:01:14;98744.50;;;24.00;18.24
66385;BME280;53426;55.872;37.462;2023-04-22T11:03:49;98730.81;;;22.52;19.54
66385;BME280;53426;55.872;37.462;2023-04-22T11:09:44;98744.44;;;20.96;21.13
66385;BME280;53426;55.872;37.462;2023-04-22T11:15:12;98720.06;;;20.33;21.42
66385;BME280;53426;55.872;37.462;2023-04-22T11:17:46;98761.19;;;20.27;21.60
66385;BME280;53426;55.872;37.462;2023-04-22T11:20:14;98748.63;;;20.01;21.53
66385;BME280;53426;55.872;37.462;2023-04-22T11:22:51;98764.47;;;19.43;21.64
66385;BME280;53426;55.872;37.462;2023-04-22T11:25:18;98742.69;;;18.92;22.33
66385;BME280;53426;55.872;37.462;2023-04-22T11:27:46;98764.13;;;19.46;22.43
66385;BME280;53426;55.872;37.462;2023-04-22T11:30:33;98718.28;;;19.68;22.05
66385;BME280;53426;55.872;37.462;2023-04-22T11:33:36;98763.06;;;20.13;23.27
66385;BME280;53426;55.872;37.462;2023-04-22T11:36:12;98752.09;;;20.21;22.29
66385;BME280;53426;55.872;37.462;2023-04-22T11:38:41;98677.78;;;19.62;22.88
66385;BME280;53426;55.872;37.462;2023-04-22T11:44:57;98697.19;;;17.95;23.76
66385;BME280;53426;55.872;37.462;2023-04-22T11:47:28;98759.91;;;18.35;24.03
66385;BME280;53426;55.872;37.462;2023-04-22T11:49:58;98744.84;;;18.34;24.02
66385;BME280;53426;55.872;37.462;2023-04-22T11:55:11;98731.81;;;18.25;23.37
66385;BME280;53426;55.872;37.462;2023-04-22T11:57:38;98750.03;;;18.36;23.44
66385;BME280;53426;55.872;37.462;2023-04-22T12:00:06;98707.69;;;17.90;23.98
66385;BME280;53426;55.872;37.462;2023-04-22T12:02:33;98741.41;;;18.13;23.40
66385;BME280;53426;55.872;37.462;2023-04-22T12:05:01;98742.06;;;18.49;23.12
66385;BME280;53426;55.872;37.462;2023-04-22T12:07:30;98739.66;;;18.61;23.59
66385;BME280;53426;55.872;37.462;2023-04-22T12:09:57;98719.19;;;18.53;23.22
66385;BME280;53426;55.872;37.462;2023-04-22T12:12:27;98710.16;;;18.54;26.06
66385;BME280;53426;55.872;37.462;2023-04-22T12:14:53;98712.03;;;18.26;23.47
66385;BME280;53426;55.872;37.462;2023-04-22T12:17:23;98742.78;;;18.02;23.57
66385;BME280;53426;55.872;37.462;2023-04-22T12:19:54;98736.94;;;17.43;24.29
66385;BME280;53426;55.872;37.462;2023-04-22T12:22:29;98736.53;;;17.03;24.67
66385;BME280;53426;55.872;37.462;2023-04-22T12:24:59;98735.03;;;16.80;24.95
66385;BME280;53426;55.872;37.462;2023-04-22T12:27:25;98695.13;;;16.49;25.32
66385;BME280;53426;55.872;37.462;2023-04-22T12:30:22;98736.72;;;17.02;25.23
66385;BME280;53426;55.872;37.462;2023-04-22T12:32:49;98609.97;;;16.24;25.15
66385;BME280;53426;55.872;37.462;2023-04-22T12:35:15;98728.19;;;17.13;24.49
66385;BME280;53426;55.872;37.462;2023-04-22T12:37:42;98657.81;;;16.91;24.23
66385;BME280;53426;55.872;37.462;2023-04-22T12:40:08;98709.97;;;17.44;25.61
66385;BME280;53426;55.872;37.462;2023-04-22T12:42:35;98723.28;;;17.59;24.74
66385;BME280;53426;55.872;37.462;2023-04-22T12:45:01;98718.94;;;17.58;24.76
66385;BME280;53426;55.872;37.462;2023-04-22T12:47:31;98705.69;;;17.71;24.73
66385;BME280;53426;55.872;37.462;2023-04-22T12:49:57;98707.13;;;17.67;25.02
66385;BME280;53426;55.872;37.462;2023-04-22T12:52:50;98664.78;;;17.35;24.67
66385;BME280;53426;55.872;37.462;2023-04-22T12:55:44;98643.56;;;17.54;24.07
66385;BME280;53426;55.872;37.462;2023-04-22T12:58:11;98639.13;;;17.62;24.83
66385;BME280;53426;55.872;37.462;2023-04-22T13:00:37;98627.50;;;17.54;24.31
66385;BME280;53426;55.872;37.462;2023-04-22T13:03:03;98714.00;;;18.11;23.99
66385;BME280;53426;55.872;37.462;2023-04-22T13:05:29;98707.84;;;18.17;24.28
66385;BME280;53426;55.872;37.462;2023-04-22T13:07:54;98672.25;;;17.88;24.36
66385;BME280;53426;55.872;37.462;2023-04-22T13:10:47;98723.44;;;18.41;24.31
66385;BME280;53426;55.872;37.462;2023-04-22T13:13:13;98721.38;;;18.36;23.54
66385;BME280;53426;55.872;37.462;2023-04-22T13:15:38;98720.03;;;18.19;23.22
66385;BME280;53426;55.872;37.462;2023-04-22T13:18:05;98720.47;;;17.88;24.04
66385;BME280;53426;55.872;37.462;2023-04-22T13:20:31;98689.34;;;17.60;24.67
66385;BME280;53426;55.872;37.462;2023-04-22T13:22:57;98716.22;;;17.73;24.16
66385;BME280;53426;55.872;37.462;2023-04-22T13:25:23;98727.84;;;17.86;24.76
66385;BME280;53426;55.872;37.462;2023-04-22T13:27:49;98726.53;;;17.76;25.05
66385;BME280;53426;55.872;37.462;2023-04-22T13:30:15;98732.97;;;17.81;25.38
66385;BME280;53426;55.872;37.462;2023-04-22T13:32:41;98710.41;;;17.69;24.33
66385;BME280;53426;55.872;37.462;2023-04-22T13:35:07;98722.19;;;17.75;24.65
66385;BME280;53426;55.872;37.462;2023-04-22T13:37:33;98673.97;;;17.47;24.81
66385;BME280;53426;55.872;37.462;2023-04-22T13:40:00;98705.47;;;17.66;24.68
66385;BME280;53426;55.872;37.462;2023-04-22T13:42:26;98731.53;;;17.85;24.27
66385;BME280;53426;55.872;37.462;2023-04-22T13:44:53;98720.94;;;17.71;24.72
66385;BME280;53426;55.872;37.462;2023-04-22T13:47:19;98673.75;;;17.21;24.90